Time;durP1;ratioP1;P1;durP2;ratioP2;P2;SDS_P1;SDS_P2;PMS_P1;PMS_P2;Temp;Humidity;BMP_temperature;BMP_pressure;BME280_temperature;BME280_humidity;BME280_pressure;Samples;Min_cycle;Max_cycle;Signal;HPM_P1;HPM_P2
2022/12/25 00:00:34;;;;;;;9.05;4.60;;;;;;;;;;5055339;28;20174;-81
2022/12/25 00:03:00;;;;;;;8.90;4.38;;;;;;;;;;5055587;28;20174;-80
2022/12/25 00:05:26;;;;;;;9.45;4.78;;;;;;;;;;5037635;28;20182;-80
2022/12/25 00:07:52;;;;;;;7.75;3.60;;;;;;;;;;5037194;28;20236;-81
2022/12/25 00:10:18;;;;;;;8.05;3.75;;;;;;;;;;5055641;28;20233;-80
2022/12/25 00:12:44;;;;;;;6.47;4.03;;;;;;;;;;5054994;28;20181;-81
2022/12/25 00:15:10;;;;;;;7.05;3.10;;;;;;;;;;5055705;28;20181;-81
2022/12/25 00:17:36;;;;;;;5.05;3.40;;;;;;;;;;5054553;28;20252;-81
2022/12/25 00:20:02;;;;;;;7.25;3.35;;;;;;;;;;5054040;28;20200;-81
2022/12/25 00:22:29;;;;;;;4.30;2.97;;;;;;;;;;5055050;28;20181;-84
2022/12/25 00:24:55;;;;;;;5.93;4.07;;;;;;;;;;5055289;28;20174;-81
2022/12/25 00:27:21;;;;;;;5.57;3.60;;;;;;;;;;5054161;28;20174;-81
2022/12/25 00:29:47;;;;;;;9.85;4.70;;;;;;;;;;5054772;28;20547;-81
2022/12/25 00:32:14;;;;;;;8.52;3.80;;;;;;;;;;5055239;28;20241;-82
2022/12/25 00:34:40;;;;;;;7.88;3.22;;;;;;;;;;5055510;28;20652;-81
2022/12/25 00:37:06;;;;;;;7.63;3.33;;;;;;;;;;5054774;28;20629;-81
2022/12/25 00:39:32;;;;;;;6.72;3.53;;;;;;;;;;5036978;28;20189;-82
2022/12/25 00:44:43;;;;;;;4.15;2.97;;;;;;;;;;5055055;28;20229;-82
2022/12/25 00:47:09;;;;;;;7.22;2.80;;;;;;;;;;5054122;28;20191;-81
2022/12/25 00:49:35;;;;;;;7.93;3.53;;;;;;;;;;5053214;28;20217;-82
2022/12/25 00:52:01;;;;;;;6.70;3.80;;;;;;;;;;5054914;28;20169;-81
2022/12/25 00:54:27;;;;;;;5.50;2.58;;;;;;;;;;5054690;28;20628;-81
2022/12/25 00:56:53;;;;;;;8.98;2.55;;;;;;;;;;5037014;28;20190;-82
2022/12/25 00:59:19;;;;;;;8.38;3.20;;;;;;;;;;5054368;28;20181;-82
2022/12/25 01:01:45;;;;;;;2.97;2.63;;;;;;;;;;5053404;28;20193;-81
2022/12/25 01:04:11;;;;;;;5.82;3.10;;;;;;;;;;5053788;28;20185;-81
2022/12/25 01:06:38;;;;;;;5.10;2.40;;;;;;;;;;5053604;28;20185;-81
2022/12/25 01:11:48;;;;;;;3.88;2.22;;;;;;;;;;5054673;28;20308;-81
2022/12/25 01:14:15;;;;;;;8.45;2.50;;;;;;;;;;5054861;28;20178;-81
2022/12/25 01:16:41;;;;;;;2.70;1.80;;;;;;;;;;5054699;28;20260;-81
2022/12/25 01:19:07;;;;;;;5.18;2.28;;;;;;;;;;5053417;28;20197;-81
2022/12/25 01:21:33;;;;;;;4.03;1.80;;;;;;;;;;5053579;28;20181;-84
2022/12/25 01:23:59;;;;;;;4.35;2.55;;;;;;;;;;5055024;28;20530;-81
2022/12/25 01:26:26;;;;;;;6.97;2.08;;;;;;;;;;5053517;28;20283;-82
2022/12/25 01:28:52;;;;;;;2.83;1.90;;;;;;;;;;5054281;28;21105;-81
2022/12/25 01:31:19;;;;;;;4.53;1.88;;;;;;;;;;5058526;28;20205;-81
2022/12/25 01:33:45;;;;;;;7.93;2.15;;;;;;;;;;5058201;28;20238;-81
2022/12/25 01:36:22;;;;;;;3.75;2.70;;;;;;;;;;5058194;28;20359;-81
2022/12/25 01:38:48;;;;;;;4.07;1.90;;;;;;;;;;5057640;28;20166;-81
2022/12/25 01:41:15;;;;;;;4.35;1.85;;;;;;;;;;5057866;28;20686;-81
2022/12/25 01:43:59;;;;;;;6.70;2.20;;;;;;;;;;5057920;28;20223;-81
2022/12/25 01:46:25;;;;;;;3.63;1.70;;;;;;;;;;5057599;28;20256;-81
2022/12/25 01:48:51;;;;;;;4.18;1.92;;;;;;;;;;5058069;28;20271;-81
2022/12/25 01:51:31;;;;;;;6.15;2.35;;;;;;;;;;5056607;28;20218;-81
2022/12/25 01:53:59;;;;;;;3.65;2.00;;;;;;;;;;5056507;28;20169;-81
2022/12/25 01:56:26;;;;;;;5.03;2.53;;;;;;;;;;5057513;28;20170;-81
2022/12/25 01:58:52;;;;;;;4.30;1.95;;;;;;;;;;5056627;28;20537;-81
2022/12/25 02:01:18;;;;;;;2.25;1.70;;;;;;;;;;5056550;28;20264;-81
2022/12/25 02:03:44;;;;;;;3.85;2.10;;;;;;;;;;5056275;28;20176;-81
2022/12/25 02:06:11;;;;;;;6.97;2.65;;;;;;;;;;5057877;28;20161;-81
2022/12/25 02:08:37;;;;;;;3.78;1.83;;;;;;;;;;5055780;28;20231;-82
2022/12/25 02:11:03;;;;;;;4.38;2.03;;;;;;;;;;5057652;28;20215;-81
2022/12/25 02:13:29;;;;;;;4.40;2.30;;;;;;;;;;5056386;28;20251;-81
2022/12/25 02:16:13;;;;;;;3.92;2.58;;;;;;;;;;5057026;28;20665;-81
2022/12/25 02:18:46;;;;;;;2.67;1.75;;;;;;;;;;5056949;28;20181;-81
2022/12/25 02:21:15;;;;;;;4.53;1.77;;;;;;;;;;5057549;28;20262;-81
2022/12/25 02:23:50;;;;;;;3.15;1.83;;;;;;;;;;5057061;28;20523;-81
2022/12/25 02:26:27;;;;;;;2.50;2.20;;;;;;;;;;5056165;28;20196;-81
2022/12/25 02:29:00;;;;;;;2.33;1.50;;;;;;;;;;5056831;28;20683;-81
2022/12/25 02:31:59;;;;;;;4.10;2.00;;;;;;;;;;5056225;28;20305;-81
2022/12/25 02:34:37;;;;;;;2.88;1.80;;;;;;;;;;5045074;28;20185;-81
2022/12/25 02:37:08;;;;;;;3.53;1.75;;;;;;;;;;5056103;28;20178;-81
2022/12/25 03:08:02;;;;;;;3.92;2.60;;;;;;;;;;5056428;28;20637;-82
2022/12/25 03:13:19;;;;;;;8.10;2.50;;;;;;;;;;5056781;28;20216;-81
2022/12/25 03:18:31;;;;;;;5.18;2.60;;;;;;;;;;5056529;28;20257;-80
2022/12/25 03:31:10;;;;;;;4.93;2.50;;;;;;;;;;5056209;28;20215;-81
2022/12/25 03:32:18;;;;;;;4.60;2.40;;;;;;;;;;5054880;28;20599;-82
2022/12/25 04:36:21;;;;;;;6.28;3.05;;;;;;;;;;5055086;28;20208;-81
2022/12/25 04:38:47;;;;;;;5.28;1.90;;;;;;;;;;5055233;28;20677;-81
2022/12/25 04:41:13;;;;;;;7.45;2.40;;;;;;;;;;5055007;28;20177;-81
2022/12/25 04:43:40;;;;;;;1.85;1.70;;;;;;;;;;5055776;28;20199;-81
2022/12/25 04:46:06;;;;;;;3.05;2.30;;;;;;;;;;5055317;28;20166;-81
2022/12/25 04:48:34;;;;;;;5.55;1.95;;;;;;;;;;5054144;28;20185;-81
2022/12/25 04:51:10;;;;;;;3.25;1.90;;;;;;;;;;5054562;28;20220;-81
2022/12/25 04:53:36;;;;;;;6.90;1.95;;;;;;;;;;5054036;28;20219;-81
2022/12/25 04:56:02;;;;;;;3.50;1.85;;;;;;;;;;5055228;28;20177;-80
2022/12/25 04:58:28;;;;;;;4.68;2.00;;;;;;;;;;5037282;28;20189;-81
2022/12/25 05:00:54;;;;;;;6.75;1.95;;;;;;;;;;5055209;28;20239;-80
2022/12/25 05:03:20;;;;;;;4.15;1.83;;;;;;;;;;5039085;28;20186;-81
2022/12/25 05:05:47;;;;;;;2.45;1.88;;;;;;;;;;5058367;28;20524;-85
2022/12/25 05:08:13;;;;;;;3.40;2.08;;;;;;;;;;5057247;28;20221;-80
2022/12/25 05:10:40;;;;;;;7.75;3.80;;;;;;;;;;5059109;28;20198;-80
2022/12/25 05:13:06;;;;;;;5.28;2.17;;;;;;;;;;5057833;28;20185;-80
2022/12/25 05:15:32;;;;;;;5.00;2.00;;;;;;;;;;5059155;28;20251;-80
2022/12/25 05:17:58;;;;;;;4.90;2.33;;;;;;;;;;5057268;28;20542;-81
2022/12/25 05:20:24;;;;;;;3.75;1.58;;;;;;;;;;5058163;28;20177;-80
2022/12/25 05:22:50;;;;;;;5.72;2.40;;;;;;;;;;5040926;28;20533;-81
2022/12/25 05:25:16;;;;;;;4.00;1.85;;;;;;;;;;5057663;28;20185;-80
2022/12/25 05:27:42;;;;;;;5.00;1.70;;;;;;;;;;5057103;28;20673;-81
2022/12/25 05:30:08;;;;;;;3.50;1.75;;;;;;;;;;5057398;28;20213;-81
2022/12/25 05:32:34;;;;;;;3.25;2.00;;;;;;;;;;5058954;28;20585;-80
2022/12/25 05:35:00;;;;;;;5.60;1.63;;;;;;;;;;5056659;28;20209;-81
2022/12/25 05:37:26;;;;;;;5.00;1.83;;;;;;;;;;5057311;28;20173;-80
2022/12/25 05:39:52;;;;;;;3.00;1.67;;;;;;;;;;5058085;28;20469;-81
2022/12/25 05:42:18;;;;;;;4.45;2.20;;;;;;;;;;5040123;28;20539;-81
2022/12/25 05:44:44;;;;;;;3.10;1.80;;;;;;;;;;5056956;28;20186;-80
2022/12/25 05:47:10;;;;;;;2.55;1.17;;;;;;;;;;5056820;28;20196;-80
2022/12/25 05:49:36;;;;;;;3.72;1.25;;;;;;;;;;5040606;28;20186;-81
2022/12/25 05:52:02;;;;;;;2.72;1.35;;;;;;;;;;5056920;28;20194;-80
2022/12/25 05:54:28;;;;;;;8.27;2.42;;;;;;;;;;5040641;28;20208;-81
2022/12/25 05:56:54;;;;;;;3.15;1.45;;;;;;;;;;5056423;28;20197;-81
2022/12/25 05:59:20;;;;;;;4.93;1.67;;;;;;;;;;5057999;28;20200;-80
2022/12/25 06:01:46;;;;;;;4.10;1.20;;;;;;;;;;5057723;28;20177;-80
2022/12/25 06:04:12;;;;;;;5.10;1.63;;;;;;;;;;5056599;28;20193;-80
2022/12/25 06:06:38;;;;;;;1.42;1.15;;;;;;;;;;5057576;28;20657;-80
2022/12/25 06:09:04;;;;;;;4.30;1.30;;;;;;;;;;5056065;28;20758;-80
2022/12/25 06:11:30;;;;;;;5.53;1.50;;;;;;;;;;5057647;28;20197;-81
2022/12/25 06:13:57;;;;;;;5.13;1.65;;;;;;;;;;5055916;28;20177;-81
2022/12/25 06:16:23;;;;;;;4.72;1.95;;;;;;;;;;5056947;28;20260;-80
2022/12/25 06:18:53;;;;;;;6.22;2.40;;;;;;;;;;5057453;28;20201;-80
2022/12/25 06:21:19;;;;;;;4.68;2.00;;;;;;;;;;5057342;28;20210;-80
2022/12/25 06:23:45;;;;;;;2.88;1.40;;;;;;;;;;5055502;28;20204;-81
2022/12/25 06:26:13;;;;;;;5.07;1.40;;;;;;;;;;5039324;28;20189;-81
2022/12/25 06:28:40;;;;;;;6.60;1.80;;;;;;;;;;5057457;28;20174;-81
2022/12/25 06:31:16;;;;;;;4.15;1.75;;;;;;;;;;5056820;28;20205;-80
2022/12/25 06:33:42;;;;;;;4.97;1.67;;;;;;;;;;5057534;28;20165;-80
2022/12/25 06:36:15;;;;;;;3.17;1.63;;;;;;;;;;5055630;28;20240;-80
2022/12/25 06:38:41;;;;;;;3.15;1.42;;;;;;;;;;5056575;28;20520;-81
2022/12/25 06:41:09;;;;;;;4.60;1.50;;;;;;;;;;5055760;28;20182;-81
2022/12/25 06:43:35;;;;;;;4.75;1.88;;;;;;;;;;5055639;28;20252;-80
2022/12/25 06:46:02;;;;;;;4.90;1.33;;;;;;;;;;5056476;28;20166;-81
2022/12/25 06:48:28;;;;;;;4.22;2.17;;;;;;;;;;5054997;28;20177;-80
2022/12/25 06:50:54;;;;;;;4.68;1.60;;;;;;;;;;5056198;28;20212;-81
2022/12/25 06:53:20;;;;;;;8.85;1.80;;;;;;;;;;5038925;28;20189;-81
2022/12/25 06:55:46;;;;;;;1.95;1.42;;;;;;;;;;5055650;28;20169;-81
2022/12/25 06:58:12;;;;;;;4.97;1.60;;;;;;;;;;5055150;28;20189;-81
2022/12/25 07:00:38;;;;;;;2.75;1.40;;;;;;;;;;5054893;28;20196;-81
2022/12/25 07:03:04;;;;;;;3.63;1.25;;;;;;;;;;5055360;28;20224;-81
2022/12/25 07:05:30;;;;;;;4.53;1.30;;;;;;;;;;5055064;28;20185;-81
2022/12/25 07:07:56;;;;;;;6.75;1.67;;;;;;;;;;5054702;28;20239;-81
2022/12/25 07:10:22;;;;;;;2.15;1.13;;;;;;;;;;5056486;28;20243;-81
2022/12/25 07:12:48;;;;;;;2.72;1.30;;;;;;;;;;5038690;28;20189;-82
2022/12/25 07:15:15;;;;;;;4.32;1.50;;;;;;;;;;5054455;28;20185;-81
2022/12/25 07:17:41;;;;;;;7.15;1.63;;;;;;;;;;5054544;28;20196;-81
2022/12/25 07:20:07;;;;;;;3.03;1.70;;;;;;;;;;5056357;28;20192;-81
2022/12/25 07:22:33;;;;;;;4.47;1.80;;;;;;;;;;5055802;28;20259;-81
2022/12/25 07:24:59;;;;;;;3.33;1.50;;;;;;;;;;5055964;28;20184;-81
2022/12/25 07:27:25;;;;;;;6.53;1.60;;;;;;;;;;5054917;28;20173;-80
2022/12/25 07:29:51;;;;;;;3.63;1.25;;;;;;;;;;5054910;28;20213;-81
2022/12/25 07:32:17;;;;;;;4.43;1.45;;;;;;;;;;5054336;28;20181;-81
2022/12/25 07:34:43;;;;;;;5.63;1.92;;;;;;;;;;5054665;28;20195;-81
2022/12/25 07:37:09;;;;;;;5.25;1.65;;;;;;;;;;5055425;28;20226;-81
2022/12/25 07:39:36;;;;;;;3.25;1.35;;;;;;;;;;5055484;28;20178;-81
2022/12/25 07:42:02;;;;;;;3.38;1.80;;;;;;;;;;5055266;28;20215;-82
2022/12/25 07:44:28;;;;;;;5.28;2.13;;;;;;;;;;5053989;28;20811;-81
2022/12/25 07:46:54;;;;;;;4.65;2.08;;;;;;;;;;5055734;28;20174;-80
2022/12/25 07:49:20;;;;;;;2.15;1.67;;;;;;;;;;5053550;28;20294;-81
2022/12/25 07:51:46;;;;;;;9.32;2.50;;;;;;;;;;5038429;28;20212;-81
2022/12/25 07:54:12;;;;;;;6.13;2.10;;;;;;;;;;5055512;28;20172;-81
2022/12/25 07:56:38;;;;;;;3.67;1.90;;;;;;;;;;5054547;28;20178;-81
2022/12/25 07:59:04;;;;;;;7.32;3.13;;;;;;;;;;5053749;28;20260;-79
2022/12/25 08:01:30;;;;;;;7.00;2.35;;;;;;;;;;5054267;28;20228;-79
2022/12/25 08:03:57;;;;;;;5.93;2.72;;;;;;;;;;5055090;28;20169;-82
2022/12/25 08:06:28;;;;;;;6.85;2.95;;;;;;;;;;5053400;28;20189;-79
2022/12/25 08:08:54;;;;;;;7.00;2.38;;;;;;;;;;5055510;28;20225;-79
2022/12/25 08:11:20;;;;;;;5.03;1.83;;;;;;;;;;5055028;28;20219;-79
2022/12/25 08:13:46;;;;;;;3.45;2.05;;;;;;;;;;5054153;28;20626;-80
2022/12/25 08:16:12;;;;;;;9.88;3.92;;;;;;;;;;5054901;28;20192;-78
2022/12/25 08:18:39;;;;;;;4.18;2.28;;;;;;;;;;5052159;28;20173;-79
2022/12/25 08:21:07;;;;;;;2.30;1.70;;;;;;;;;;5054696;28;20177;-79
2022/12/25 08:23:34;;;;;;;3.40;2.20;;;;;;;;;;5054121;28;20177;-81
2022/12/25 08:26:00;;;;;;;7.43;2.45;;;;;;;;;;5056348;28;20174;-78
2022/12/25 08:28:26;;;;;;;9.10;2.65;;;;;;;;;;5056174;28;20173;-78
2022/12/25 08:30:52;;;;;;;6.05;2.90;;;;;;;;;;5055861;28;20205;-78
2022/12/25 08:33:18;;;;;;;3.30;2.50;;;;;;;;;;5054878;28;20196;-78
2022/12/25 08:35:44;;;;;;;3.43;2.60;;;;;;;;;;5055738;28;20174;-78
2022/12/25 08:38:10;;;;;;;5.78;3.00;;;;;;;;;;5056958;28;20400;-78
2022/12/25 08:40:36;;;;;;;5.72;2.90;;;;;;;;;;5058622;28;20188;-78
2022/12/25 08:43:03;;;;;;;7.22;3.25;;;;;;;;;;5059790;28;20181;-78
2022/12/25 08:45:29;;;;;;;6.05;3.65;;;;;;;;;;5060504;28;20512;-78
2022/12/25 08:47:55;;;;;;;4.18;3.35;;;;;;;;;;5058648;28;20539;-78
2022/12/25 08:50:22;;;;;;;6.03;2.88;;;;;;;;;;5059033;28;20322;-78
2022/12/25 08:52:48;;;;;;;7.65;3.95;;;;;;;;;;5059866;28;20179;-78
2022/12/25 08:55:14;;;;;;;5.95;3.38;;;;;;;;;;5059870;28;20239;-79
2022/12/25 08:57:40;;;;;;;5.32;2.85;;;;;;;;;;5042223;28;20220;-78
2022/12/25 09:00:07;;;;;;;7.63;3.80;;;;;;;;;;5058222;28;20190;-79
2022/12/25 09:02:33;;;;;;;7.38;3.65;;;;;;;;;;5058634;28;20576;-79
2022/12/25 09:04:59;;;;;;;8.88;3.22;;;;;;;;;;5059431;28;20162;-79
2022/12/25 09:07:25;;;;;;;5.20;3.20;;;;;;;;;;5058067;28;20661;-78
2022/12/25 09:09:51;;;;;;;5.30;2.83;;;;;;;;;;5054718;28;20434;-82
2022/12/25 09:12:17;;;;;;;3.28;2.35;;;;;;;;;;5056568;28;20190;-78
2022/12/25 09:14:43;;;;;;;5.15;3.08;;;;;;;;;;5058127;28;20196;-78
2022/12/25 09:17:09;;;;;;;4.55;2.92;;;;;;;;;;5058980;28;20170;-78
2022/12/25 09:19:35;;;;;;;7.43;3.58;;;;;;;;;;5059171;28;20184;-78
2022/12/25 09:22:02;;;;;;;8.82;3.00;;;;;;;;;;5059568;28;20204;-85
2022/12/25 09:24:28;;;;;;;4.43;2.90;;;;;;;;;;5058131;28;20170;-79
2022/12/25 09:26:54;;;;;;;6.20;3.80;;;;;;;;;;5059553;28;20193;-78
2022/12/25 09:29:20;;;;;;;7.60;2.95;;;;;;;;;;5058767;28;20170;-78
2022/12/25 09:31:46;;;;;;;5.15;3.40;;;;;;;;;;5058587;28;20201;-78
2022/12/25 09:34:12;;;;;;;3.33;3.00;;;;;;;;;;5058173;28;20192;-78
2022/12/25 09:36:38;;;;;;;4.30;3.08;;;;;;;;;;5059009;28;20208;-79
2022/12/25 09:39:04;;;;;;;6.15;2.90;;;;;;;;;;5058996;28;20177;-79
2022/12/25 09:41:36;;;;;;;4.10;3.67;;;;;;;;;;5058772;28;20178;-79
2022/12/25 09:44:02;;;;;;;5.30;3.05;;;;;;;;;;5059409;28;20176;-81
2022/12/25 09:46:32;;;;;;;7.65;3.72;;;;;;;;;;5058957;28;20180;-80
2022/12/25 09:49:04;;;;;;;6.53;3.30;;;;;;;;;;5058125;28;20711;-80
2022/12/25 09:51:33;;;;;;;6.25;3.20;;;;;;;;;;5058650;28;20204;-80
2022/12/25 09:54:31;;;;;;;5.60;3.30;;;;;;;;;;5057138;28;20574;-81
2022/12/25 09:56:57;;;;;;;6.60;3.13;;;;;;;;;;5034591;28;20185;-81
2022/12/25 09:59:26;;;;;;;3.63;2.75;;;;;;;;;;5058341;28;20246;-81
2022/12/25 10:02:03;;;;;;;4.50;2.97;;;;;;;;;;5057716;28;20261;-81
2022/12/25 10:04:29;;;;;;;5.75;3.53;;;;;;;;;;5057744;28;20161;-82
2022/12/25 10:07:14;;;;;;;3.83;3.43;;;;;;;;;;5057511;28;20630;-82
2022/12/25 10:09:58;;;;;;;5.30;3.80;;;;;;;;;;5055966;28;20489;-81
2022/12/25 10:12:43;;;;;;;5.88;3.60;;;;;;;;;;5056939;28;20178;-81
2022/12/25 10:15:27;;;;;;;8.25;4.05;;;;;;;;;;5057079;28;20207;-82
2022/12/25 10:17:56;;;;;;;8.32;6.20;;;;;;;;;;5057438;28;20169;-82
2022/12/25 10:20:25;;;;;;;7.40;5.35;;;;;;;;;;5056770;28;20204;-82
2022/12/25 10:22:54;;;;;;;5.50;4.50;;;;;;;;;;5056441;28;20189;-81
2022/12/25 10:25:22;;;;;;;4.45;4.03;;;;;;;;;;5056793;28;20641;-81
2022/12/25 10:27:50;;;;;;;4.40;3.28;;;;;;;;;;5057203;28;20173;-81
2022/12/25 10:30:20;;;;;;;3.35;3.05;;;;;;;;;;5057832;28;20201;-81
2022/12/25 10:32:47;;;;;;;5.20;4.25;;;;;;;;;;5058095;28;20161;-82
2022/12/25 10:35:14;;;;;;;5.22;4.20;;;;;;;;;;5053657;28;20174;-83
2022/12/25 10:37:45;;;;;;;9.32;3.95;;;;;;;;;;5056001;28;20656;-81
2022/12/25 10:40:28;;;;;;;5.82;3.85;;;;;;;;;;5057063;28;20303;-81
2022/12/25 10:43:00;;;;;;;6.28;5.10;;;;;;;;;;5057602;28;20170;-80
2022/12/25 10:45:26;;;;;;;4.97;4.47;;;;;;;;;;5055991;28;20272;-80
2022/12/25 10:48:00;;;;;;;6.22;3.95;;;;;;;;;;5039044;28;20563;-81
2022/12/25 10:50:27;;;;;;;5.80;4.20;;;;;;;;;;5056215;28;20224;-80
2022/12/25 10:52:55;;;;;;;7.75;5.05;;;;;;;;;;5055871;28;20230;-80
2022/12/25 10:55:21;;;;;;;7.07;4.30;;;;;;;;;;5055312;28;20173;-80
2022/12/25 10:57:47;;;;;;;8.07;4.20;;;;;;;;;;5055741;28;20181;-80
2022/12/25 11:00:24;;;;;;;4.50;4.10;;;;;;;;;;5039297;28;20280;-89
2022/12/25 11:02:50;;;;;;;12.48;5.00;;;;;;;;;;5056460;28;20241;-80
2022/12/25 11:05:22;;;;;;;4.30;3.92;;;;;;;;;;5056049;28;20173;-84
2022/12/25 11:07:54;;;;;;;5.10;4.03;;;;;;;;;;5057228;28;20235;-84
2022/12/25 11:10:31;;;;;;;3.70;2.95;;;;;;;;;;5054152;28;20193;-84
2022/12/25 11:12:58;;;;;;;4.00;3.70;;;;;;;;;;5055839;28;20310;-83
2022/12/25 11:15:30;;;;;;;7.75;3.72;;;;;;;;;;5055845;28;20178;-83
2022/12/25 11:17:56;;;;;;;4.35;3.28;;;;;;;;;;5055507;28;20563;-83
2022/12/25 11:20:22;;;;;;;7.22;4.13;;;;;;;;;;5053999;28;20659;-83
2022/12/25 11:22:49;;;;;;;6.15;4.25;;;;;;;;;;5054561;28;20181;-83
2022/12/25 11:25:21;;;;;;;6.20;3.85;;;;;;;;;;5055075;28;20205;-83
2022/12/25 11:27:56;;;;;;;4.68;3.45;;;;;;;;;;5054051;28;20181;-83
2022/12/25 11:30:22;;;;;;;7.22;3.60;;;;;;;;;;5053676;28;20204;-84
2022/12/25 11:32:54;;;;;;;6.63;4.20;;;;;;;;;;5058546;28;20223;-83
2022/12/25 11:35:20;;;;;;;3.90;3.20;;;;;;;;;;5053816;28;20174;-83
2022/12/25 11:37:50;;;;;;;5.07;3.95;;;;;;;;;;5054887;28;20510;-84
2022/12/25 11:40:18;;;;;;;4.20;3.80;;;;;;;;;;5056716;28;20173;-84
2022/12/25 11:42:59;;;;;;;8.70;5.78;;;;;;;;;;5054655;28;20215;-83
2022/12/25 11:45:25;;;;;;;9.45;4.65;;;;;;;;;;5055744;28;20256;-83
2022/12/25 11:47:56;;;;;;;4.30;3.90;;;;;;;;;;5053791;28;20216;-83
2022/12/25 11:50:33;;;;;;;8.38;5.43;;;;;;;;;;5054742;28;20476;-84
2022/12/25 11:53:01;;;;;;;7.10;4.70;;;;;;;;;;5057407;28;20227;-84
2022/12/25 11:55:30;;;;;;;9.48;4.88;;;;;;;;;;5059049;28;20200;-84
2022/12/25 11:57:58;;;;;;;9.23;5.57;;;;;;;;;;5067216;28;20165;-84
2022/12/25 12:00:24;;;;;;;5.85;4.47;;;;;;;;;;5054436;28;20169;-84
2022/12/25 12:02:57;;;;;;;7.38;4.30;;;;;;;;;;5036448;28;20185;-83
2022/12/25 12:05:28;;;;;;;8.90;5.93;;;;;;;;;;5053183;28;20331;-84
2022/12/25 12:07:54;;;;;;;6.50;4.20;;;;;;;;;;5054501;28;20158;-84
2022/12/25 12:10:29;;;;;;;7.63;5.35;;;;;;;;;;5054726;28;20197;-84
2022/12/25 12:13:11;;;;;;;5.45;4.30;;;;;;;;;;5053979;28;20641;-84
2022/12/25 12:15:44;;;;;;;8.00;5.55;;;;;;;;;;5054836;28;20162;-83
2022/12/25 12:18:19;;;;;;;10.13;4.68;;;;;;;;;;5054900;28;20181;-84
2022/12/25 12:20:56;;;;;;;6.90;4.68;;;;;;;;;;5054545;28;20187;-83
2022/12/25 12:23:22;;;;;;;5.53;4.50;;;;;;;;;;5054292;28;20158;-83
2022/12/25 12:25:49;;;;;;;10.27;5.68;;;;;;;;;;5037237;28;20185;-84
2022/12/25 12:28:26;;;;;;;6.20;4.70;;;;;;;;;;5053487;28;20170;-84
2022/12/25 12:30:57;;;;;;;6.85;4.55;;;;;;;;;;5054425;28;20223;-86
2022/12/25 12:33:24;;;;;;;5.40;4.47;;;;;;;;;;5052919;28;20188;-83
2022/12/25 12:35:51;;;;;;;7.15;4.80;;;;;;;;;;5053592;28;20230;-84
2022/12/25 12:38:18;;;;;;;10.82;4.50;;;;;;;;;;5053120;28;20583;-84
2022/12/25 12:40:52;;;;;;;5.63;4.88;;;;;;;;;;5054204;28;20185;-84
2022/12/25 12:43:27;;;;;;;9.35;4.65;;;;;;;;;;5054402;28;20181;-84
2022/12/25 12:46:14;;;;;;;6.20;4.18;;;;;;;;;;5054703;28;20180;-83
2022/12/25 12:48:42;;;;;;;7.25;4.88;;;;;;;;;;5054765;28;20223;-83
2022/12/25 12:51:12;;;;;;;9.95;4.90;;;;;;;;;;5054369;28;20201;-83
2022/12/25 12:53:39;;;;;;;7.50;5.35;;;;;;;;;;5054492;28;20158;-84
2022/12/25 12:56:13;;;;;;;12.55;5.90;;;;;;;;;;5053463;28;20184;-83
2022/12/25 12:58:44;;;;;;;6.53;5.45;;;;;;;;;;5053482;28;20170;-84
2022/12/25 13:01:10;;;;;;;6.70;5.13;;;;;;;;;;5054716;28;20170;-83
2022/12/25 13:03:41;;;;;;;6.22;5.20;;;;;;;;;;5052909;28;20189;-83
2022/12/25 13:06:19;;;;;;;11.15;6.05;;;;;;;;;;5053263;28;20618;-84
2022/12/25 13:08:45;;;;;;;12.10;6.47;;;;;;;;;;5054480;28;20336;-83
2022/12/25 13:11:14;;;;;;;10.23;6.03;;;;;;;;;;5054312;28;20676;-83
2022/12/25 13:13:42;;;;;;;5.82;5.22;;;;;;;;;;5054192;28;20412;-84
2022/12/25 13:16:27;;;;;;;9.20;6.68;;;;;;;;;;5053259;28;20173;-84
2022/12/25 13:18:54;;;;;;;6.53;5.93;;;;;;;;;;5054463;28;20177;-83
2022/12/25 13:21:24;;;;;;;7.32;6.63;;;;;;;;;;5052972;28;20181;-84
2022/12/25 13:23:58;;;;;;;7.95;5.88;;;;;;;;;;5054817;28;20178;-84
2022/12/25 13:26:24;;;;;;;9.98;7.82;;;;;;;;;;5057820;28;20176;-84
2022/12/25 13:28:50;;;;;;;8.18;6.53;;;;;;;;;;5057693;28;20173;-83
2022/12/25 13:31:20;;;;;;;7.05;6.35;;;;;;;;;;5056752;28;20193;-86
2022/12/25 13:33:52;;;;;;;9.80;6.88;;;;;;;;;;5056781;28;20182;-85
2022/12/25 13:36:18;;;;;;;10.15;6.18;;;;;;;;;;5057080;28;20196;-86
2022/12/25 13:38:45;;;;;;;9.23;6.20;;;;;;;;;;5055995;28;20193;-85
2022/12/25 13:44:00;;;;;;;7.63;6.82;;;;;;;;;;5056992;28;20257;-83
2022/12/25 13:46:27;;;;;;;8.15;6.45;;;;;;;;;;5056322;28;20178;-84
2022/12/25 13:49:00;;;;;;;8.38;6.70;;;;;;;;;;5040381;28;20186;-84
2022/12/25 13:51:26;;;;;;;9.88;6.75;;;;;;;;;;5055410;28;20498;-85
2022/12/25 13:54:03;;;;;;;7.90;7.10;;;;;;;;;;5056049;28;20651;-84
2022/12/25 13:56:29;;;;;;;6.72;5.65;;;;;;;;;;5057443;28;20522;-84
2022/12/25 13:58:55;;;;;;;13.45;6.65;;;;;;;;;;5056060;28;20173;-84
2022/12/25 14:01:21;;;;;;;8.38;7.53;;;;;;;;;;5055892;28;20196;-86
2022/12/25 14:03:47;;;;;;;8.75;7.57;;;;;;;;;;5057134;28;20532;-84
2022/12/25 14:06:27;;;;;;;11.20;8.17;;;;;;;;;;5061212;28;20179;-83
2022/12/25 14:08:54;;;;;;;10.23;8.30;;;;;;;;;;5055184;28;20887;-84
2022/12/25 14:11:22;;;;;;;8.98;6.22;;;;;;;;;;5055374;28;20282;-82
2022/12/25 14:13:50;;;;;;;8.18;7.38;;;;;;;;;;5054004;28;20174;-88
2022/12/25 14:16:17;;;;;;;6.95;6.10;;;;;;;;;;5052086;28;20191;-85
2022/12/25 14:18:50;;;;;;;7.60;6.75;;;;;;;;;;5052800;28;20216;-83
2022/12/25 14:21:22;;;;;;;12.60;8.48;;;;;;;;;;5052636;28;20169;-84
2022/12/25 14:23:49;;;;;;;9.40;7.40;;;;;;;;;;5055343;28;20978;-82
2022/12/25 14:26:27;;;;;;;8.98;6.75;;;;;;;;;;5055645;28;20850;-81
2022/12/25 14:29:08;;;;;;;7.82;6.35;;;;;;;;;;5056578;28;20227;-82
2022/12/25 14:31:35;;;;;;;6.72;6.03;;;;;;;;;;5056077;28;20197;-82
2022/12/25 14:34:02;;;;;;;10.05;6.50;;;;;;;;;;5056603;28;20180;-82
2022/12/25 14:36:29;;;;;;;9.57;7.50;;;;;;;;;;5056171;28;20170;-81
2022/12/25 14:38:57;;;;;;;7.25;5.47;;;;;;;;;;5038854;28;20542;-82
2022/12/25 14:41:36;;;;;;;7.85;5.80;;;;;;;;;;5056633;28;20224;-83
2022/12/25 14:44:05;;;;;;;7.20;6.03;;;;;;;;;;5056593;28;20218;-82
2022/12/25 14:46:32;;;;;;;9.00;6.38;;;;;;;;;;5054880;28;20181;-82
2022/12/25 14:48:59;;;;;;;6.82;6.13;;;;;;;;;;5056619;28;20184;-83
2022/12/25 14:51:25;;;;;;;6.65;5.75;;;;;;;;;;5054759;28;20216;-83
2022/12/25 14:53:55;;;;;;;6.47;5.85;;;;;;;;;;5056166;28;20264;-82
2022/12/25 14:56:22;;;;;;;6.75;5.80;;;;;;;;;;5054760;28;20644;-88
2022/12/25 14:58:53;;;;;;;6.78;6.05;;;;;;;;;;5056139;28;20238;-82
2022/12/25 15:01:31;;;;;;;9.18;6.20;;;;;;;;;;5056459;28;20169;-83
2022/12/25 15:04:09;;;;;;;6.68;6.03;;;;;;;;;;5055868;28;20227;-83
2022/12/25 15:06:36;;;;;;;7.10;5.95;;;;;;;;;;5054900;28;20181;-82
2022/12/25 15:09:05;;;;;;;8.73;5.75;;;;;;;;;;5054485;28;20250;-82
2022/12/25 15:11:31;;;;;;;9.45;5.88;;;;;;;;;;5054955;28;20189;-83
2022/12/25 15:13:57;;;;;;;6.60;5.10;;;;;;;;;;5055702;28;20284;-84
2022/12/25 15:16:29;;;;;;;6.70;5.40;;;;;;;;;;5055242;28;20408;-84
2022/12/25 15:18:55;;;;;;;8.35;5.85;;;;;;;;;;5056749;28;20182;-83
2022/12/25 15:21:29;;;;;;;7.05;5.00;;;;;;;;;;5054395;28;20227;-83
2022/12/25 15:23:56;;;;;;;8.43;5.30;;;;;;;;;;5055955;28;20518;-83
2022/12/25 15:26:23;;;;;;;8.13;5.20;;;;;;;;;;5054207;28;20269;-85
2022/12/25 15:28:49;;;;;;;8.70;5.57;;;;;;;;;;5056153;28;20170;-83
2022/12/25 15:31:18;;;;;;;6.45;5.75;;;;;;;;;;5054408;28;20278;-83
2022/12/25 15:33:44;;;;;;;7.60;5.65;;;;;;;;;;5053952;28;20276;-85
2022/12/25 15:36:10;;;;;;;8.10;5.80;;;;;;;;;;5054104;28;20608;-83
2022/12/25 15:38:37;;;;;;;5.40;4.90;;;;;;;;;;5055647;28;20437;-85
2022/12/25 15:41:04;;;;;;;5.28;4.63;;;;;;;;;;5054520;28;20988;-81
2022/12/25 15:43:30;;;;;;;18.42;12.27;;;;;;;;;;5054969;28;20227;-82
2022/12/25 15:45:55;;;;;;;8.52;6.38;;;;;;;;;;5037692;28;20280;-82
2022/12/25 15:48:21;;;;;;;5.90;4.73;;;;;;;;;;5054208;28;20626;-82
2022/12/25 15:50:48;;;;;;;9.63;6.67;;;;;;;;;;5035208;28;20556;-84
2022/12/25 15:53:14;;;;;;;5.43;4.80;;;;;;;;;;5048547;28;20427;-83
2022/12/25 15:55:40;;;;;;;4.88;4.10;;;;;;;;;;5052645;28;20197;-82
2022/12/25 15:58:06;;;;;;;6.07;4.72;;;;;;;;;;5053942;28;20213;-81
2022/12/25 16:00:32;;;;;;;27.57;14.70;;;;;;;;;;5053308;28;20224;-84
2022/12/25 16:02:58;;;;;;;17.60;10.13;;;;;;;;;;5054737;28;20408;-83
2022/12/25 16:05:24;;;;;;;5.57;4.80;;;;;;;;;;5055678;28;20185;-81
2022/12/25 16:07:50;;;;;;;7.03;4.10;;;;;;;;;;5053067;28;20415;-81
2022/12/25 16:10:17;;;;;;;7.60;5.10;;;;;;;;;;5054435;28;20451;-81
2022/12/25 16:12:43;;;;;;;6.05;5.03;;;;;;;;;;5054016;28;20495;-81
2022/12/25 16:15:10;;;;;;;6.03;4.80;;;;;;;;;;5053581;28;20553;-81
2022/12/25 16:17:36;;;;;;;6.25;5.35;;;;;;;;;;5053295;28;20180;-80
2022/12/25 16:20:03;;;;;;;5.50;5.00;;;;;;;;;;5054776;28;20177;-81
2022/12/25 16:22:29;;;;;;;4.90;4.40;;;;;;;;;;5056008;28;20404;-81
2022/12/25 16:24:55;;;;;;;5.20;4.68;;;;;;;;;;5055053;28;20173;-80
2022/12/25 16:27:21;;;;;;;8.40;5.72;;;;;;;;;;5054105;28;20268;-81
2022/12/25 16:29:47;;;;;;;6.28;4.38;;;;;;;;;;5053675;28;20261;-80
2022/12/25 16:32:15;;;;;;;8.33;4.90;;;;;;;;;;5053178;28;20300;-81
2022/12/25 16:34:41;;;;;;;6.20;4.57;;;;;;;;;;5053145;28;20494;-81
2022/12/25 16:37:07;;;;;;;5.70;4.23;;;;;;;;;;5053355;28;20208;-81
2022/12/25 16:39:33;;;;;;;7.18;3.95;;;;;;;;;;5053367;28;20416;-81
2022/12/25 16:41:59;;;;;;;6.03;4.17;;;;;;;;;;5037169;28;20286;-82